createdAt,value
2022-10-17T00:03:16.219Z,100889.88
2022-10-17T00:10:01.577Z,100838.75
2022-10-17T00:16:49.509Z,100901.63
2022-10-17T00:23:35.072Z,100911.22
2022-10-17T00:30:22.132Z,100873.81
2022-10-17T00:37:10.117Z,100904.41
2022-10-17T00:44:00.385Z,100912.28
2022-10-17T00:50:50.773Z,100910.19
2022-10-17T00:57:38.933Z,100919.59
2022-10-17T01:04:24.896Z,100922.72
2022-10-17T01:11:25.892Z,100921.31
2022-10-17T01:18:32.584Z,100918.72
2022-10-17T01:25:32.518Z,100916.41
2022-10-17T01:32:25.076Z,100924.50
2022-10-17T01:39:20.120Z,100921.25
2022-10-17T01:46:15.261Z,100752.22
2022-10-17T01:53:09.682Z,100913.44
2022-10-17T01:59:58.293Z,100891.28
2022-10-17T02:06:43.652Z,100898.22
2022-10-17T02:13:48.653Z,100891.94
2022-10-17T02:20:40.476Z,100908.16
2022-10-17T02:27:36.733Z,100901.66
2022-10-17T02:34:30.228Z,100906.75
2022-10-17T02:41:21.870Z,100897.97
2022-10-17T03:01:58.379Z,100927.56
2022-10-17T03:08:43.899Z,100931.31
2022-10-17T03:15:29.676Z,100845.38
2022-10-17T03:22:18.060Z,100929.59
2022-10-17T03:29:05.775Z,100941.00
2022-10-17T03:35:52.696Z,100939.06
2022-10-17T03:42:41.063Z,100941.69
2022-10-17T03:49:26.907Z,100951.53
2022-10-17T03:56:15.257Z,100963.31
2022-10-17T04:03:03.893Z,100968.44
2022-10-17T04:09:50.396Z,100976.16
2022-10-17T04:16:38.258Z,100987.91
2022-10-17T04:23:32.716Z,100982.56
2022-10-17T04:30:26.760Z,100996.59
2022-10-17T04:37:12.236Z,100996.59
2022-10-17T04:44:00.444Z,100992.88
2022-10-17T04:50:57.462Z,100990.09
2022-10-17T04:57:52.640Z,100842.47
2022-10-17T05:04:42.425Z,100982.44
2022-10-17T05:11:32.380Z,100935.50
2022-10-17T05:18:18.121Z,100986.88
2022-10-17T05:25:06.637Z,100989.16
2022-10-17T05:31:52.788Z,101000.75
2022-10-17T05:38:39.627Z,100934.00
2022-10-17T05:45:28.467Z,101019.38
2022-10-17T05:52:15.229Z,101013.47
2022-10-17T05:59:17.957Z,101041.22
2022-10-17T06:06:15.725Z,101019.53
2022-10-17T06:13:02.953Z,101028.34
2022-10-17T06:19:48.484Z,101041.75
2022-10-17T06:26:37.360Z,101030.66
2022-10-17T06:33:25.343Z,101041.88
2022-10-17T06:40:15.098Z,100991.72
2022-10-17T06:47:04.936Z,101060.06
2022-10-17T06:53:51.062Z,101083.34
2022-10-17T07:00:59.926Z,101088.88
2022-10-17T07:07:51.049Z,101095.38
2022-10-17T07:14:37.619Z,101095.19
2022-10-17T07:21:24.186Z,101099.19
2022-10-17T07:28:12.264Z,101086.50
2022-10-17T07:34:58.532Z,101087.72
2022-10-17T07:41:44.372Z,101097.69
2022-10-17T07:48:33.344Z,101102.63
2022-10-17T07:55:19.212Z,101124.34
2022-10-17T08:02:04.892Z,101129.59
2022-10-17T08:08:52.848Z,101133.66
2022-10-17T08:15:41.572Z,101137.91
2022-10-17T08:22:28.897Z,101138.06
2022-10-17T08:29:20.238Z,101133.97
2022-10-17T08:36:07.304Z,101049.31
2022-10-17T08:43:23.956Z,101122.63
2022-10-17T08:50:19.364Z,101068.69
2022-10-17T08:57:04.851Z,101105.97
2022-10-17T09:04:12.830Z,101117.81
2022-10-17T09:11:12.825Z,101110.88
2022-10-17T09:18:02.801Z,101136.66
2022-10-17T09:24:55.607Z,101137.69
2022-10-17T09:31:48.561Z,101143.69
2022-10-17T09:38:50.202Z,101148.78
2022-10-17T09:45:44.090Z,101142.81
2022-10-17T09:52:37.462Z,101140.03
2022-10-17T09:59:36.138Z,101140.38
2022-10-17T10:06:23.328Z,101150.22
2022-10-17T10:13:22.828Z,101151.97
2022-10-17T10:20:32.860Z,101124.34
2022-10-17T10:27:21.906Z,101158.25
2022-10-17T10:34:22.254Z,101171.59
2022-10-17T10:41:10.480Z,101000.31
2022-10-17T10:47:58.922Z,101144.06
2022-10-17T10:54:58.022Z,101127.69
2022-10-17T11:01:50.722Z,101149.00
2022-10-17T11:08:46.067Z,101163.72
2022-10-17T11:15:42.181Z,101165.78
2022-10-17T11:22:31.559Z,101159.59
2022-10-17T11:29:17.342Z,101163.66
2022-10-17T11:36:10.741Z,101172.28
2022-10-17T11:43:03.321Z,101172.22
2022-10-17T11:49:55.068Z,101173.88
2022-10-17T11:56:51.789Z,101171.06
2022-10-17T12:03:54.186Z,101168.59
2022-10-17T12:10:50.007Z,101168.13
2022-10-17T12:17:40.761Z,101157.59
2022-10-17T12:24:38.589Z,101162.72
2022-10-17T12:31:33.626Z,101147.91
2022-10-17T12:38:29.570Z,101149.09
2022-10-17T12:45:49.535Z,101159.63
2022-10-17T12:53:07.139Z,101162.16
2022-10-17T12:59:58.664Z,101107.47
2022-10-17T13:06:50.041Z,101157.63
2022-10-17T13:13:44.812Z,101160.31
2022-10-17T13:20:35.400Z,101167.41
2022-10-17T13:27:32.534Z,101168.84
2022-10-17T13:34:22.072Z,101189.03
2022-10-17T13:41:34.749Z,101175.88
2022-10-17T13:48:24.917Z,101196.09
2022-10-17T13:55:17.903Z,101191.41
2022-10-17T14:02:12.781Z,101188.72
2022-10-17T14:09:02.652Z,101183.75
2022-10-17T14:15:50.123Z,101184.41
2022-10-17T14:22:40.645Z,101188.06
2022-10-17T14:29:29.230Z,101189.75
2022-10-17T14:36:14.860Z,101144.81
2022-10-17T14:43:07.468Z,101192.25
2022-10-17T14:49:55.472Z,101201.91
2022-10-17T14:56:44.413Z,101205.31
2022-10-17T15:03:32.550Z,101222.41
2022-10-17T15:10:35.880Z,101227.78
2022-10-17T15:17:25.412Z,101100.00
2022-10-17T15:24:13.952Z,101238.13
2022-10-17T15:30:59.338Z,101238.25
2022-10-17T15:37:46.727Z,101243.97
2022-10-17T15:44:36.462Z,101220.59
2022-10-17T15:51:22.229Z,101229.50
2022-10-17T15:58:07.581Z,101232.69
2022-10-17T16:04:56.274Z,101234.53
2022-10-17T16:11:44.146Z,101246.06
2022-10-17T16:18:29.481Z,101258.72
2022-10-17T16:25:24.788Z,101245.00
2022-10-17T16:32:11.593Z,101208.00
2022-10-17T16:38:57.436Z,101262.16
2022-10-17T16:45:45.585Z,101266.47
2022-10-17T16:52:31.467Z,101278.88
2022-10-17T16:59:17.510Z,101287.19
2022-10-17T17:06:06.614Z,101293.47
2022-10-17T17:12:52.134Z,101302.56
2022-10-17T17:19:37.505Z,101302.81
2022-10-17T17:26:26.458Z,101314.66
2022-10-17T17:33:11.802Z,101313.78
2022-10-17T17:39:57.142Z,101323.63
2022-10-17T17:46:45.077Z,101242.16
2022-10-17T17:53:30.566Z,101319.94
2022-10-17T18:00:17.623Z,101315.44
2022-10-17T18:07:05.630Z,101322.06
2022-10-17T18:13:55.231Z,101336.78
2022-10-17T18:20:44.184Z,101335.38
2022-10-17T18:27:32.122Z,101342.47
2022-10-17T18:34:17.522Z,101355.69
2022-10-17T18:41:08.401Z,101327.28
2022-10-17T18:47:56.516Z,101351.19
2022-10-17T18:54:41.861Z,101287.41
2022-10-17T19:01:29.735Z,101355.16
2022-10-17T19:08:18.873Z,101357.44
2022-10-17T19:15:04.959Z,101367.84
2022-10-17T19:21:50.816Z,101355.75
2022-10-17T19:28:41.586Z,101353.22
2022-10-17T19:35:27.251Z,101343.50
2022-10-17T19:42:12.489Z,101341.88
2022-10-17T19:49:00.863Z,101333.72
2022-10-17T19:55:46.550Z,101342.44
2022-10-17T20:02:32.290Z,101343.97
2022-10-17T20:09:20.974Z,101339.03
2022-10-17T20:16:09.084Z,101339.38
2022-10-17T20:22:54.535Z,101345.38
2022-10-17T20:29:42.493Z,101340.50
2022-10-17T20:36:28.805Z,101343.56
2022-10-17T20:43:16.056Z,101336.63
2022-10-17T20:50:04.004Z,101344.41
2022-10-17T20:56:49.404Z,101351.91
2022-10-17T21:03:38.743Z,101362.13
2022-10-17T21:10:35.311Z,101359.16
2022-10-17T21:17:20.945Z,101349.38
2022-10-17T21:24:12.426Z,101341.97
2022-10-17T21:31:14.279Z,101356.88
2022-10-17T21:37:59.675Z,101362.03
2022-10-17T21:44:45.049Z,101356.41
2022-10-17T21:51:33.063Z,101349.09
2022-10-17T21:58:18.488Z,101367.53
2022-10-17T22:05:03.920Z,101366.72
2022-10-17T22:11:56.773Z,101366.25
2022-10-17T22:18:42.651Z,101356.69
2022-10-17T22:25:27.823Z,101355.97
2022-10-17T22:32:20.065Z,101359.31
2022-10-17T22:39:08.588Z,101359.75
2022-10-17T22:45:58.181Z,101357.69
2022-10-17T22:52:46.167Z,101345.66
2022-10-17T22:59:31.478Z,101351.25
2022-10-17T23:06:17.013Z,101342.41
2022-10-17T23:13:07.448Z,101337.53
2022-10-17T23:19:55.511Z,101333.94
2022-10-17T23:26:42.964Z,101330.59
2022-10-17T23:33:30.913Z,101276.22
2022-10-17T23:40:16.892Z,101294.59
2022-10-17T23:47:02.220Z,101333.09
2022-10-17T23:53:50.359Z,101258.56
